createdAt,value
2018-11-20T00:00:15.783Z,0.00
2018-11-20T00:01:15.793Z,0.00
2018-11-20T00:02:15.801Z,0.00
2018-11-20T00:03:15.801Z,0.00
2018-11-20T00:04:15.799Z,0.00
2018-11-20T00:05:15.826Z,0.00
2018-11-20T00:06:15.803Z,0.00
2018-11-20T00:07:15.821Z,0.00
2018-11-20T00:08:15.814Z,0.00
2018-11-20T00:09:15.833Z,0.00
2018-11-20T00:10:15.833Z,0.00
2018-11-20T00:11:15.839Z,0.00
2018-11-20T00:12:15.855Z,0.00
2018-11-20T00:13:15.849Z,0.00
2018-11-20T00:14:15.977Z,0.00
2018-11-20T00:15:15.859Z,0.00
2018-11-20T00:16:15.857Z,0.00
2018-11-20T00:17:15.876Z,0.00
2018-11-20T00:18:15.874Z,0.00
2018-11-20T00:19:15.879Z,0.00
2018-11-20T00:20:15.886Z,0.00
2018-11-20T00:21:15.887Z,0.00
2018-11-20T00:22:16.761Z,0.00
2018-11-20T00:23:15.896Z,0.00
2018-11-20T00:24:15.933Z,0.00
2018-11-20T00:25:15.909Z,0.00
2018-11-20T00:26:15.917Z,0.00
2018-11-20T00:27:15.922Z,0.00
2018-11-20T00:28:15.938Z,0.00
2018-11-20T00:29:15.943Z,0.00
2018-11-20T00:30:15.931Z,0.00
2018-11-20T00:31:15.939Z,0.00
2018-11-20T00:32:15.963Z,0.00
2018-11-20T00:33:15.950Z,0.00
2018-11-20T00:34:15.961Z,0.00
2018-11-20T00:35:15.959Z,0.00
2018-11-20T00:36:15.973Z,0.00
2018-11-20T00:37:15.968Z,0.00
2018-11-20T00:38:15.987Z,0.00
2018-11-20T00:39:15.976Z,0.00
2018-11-20T00:40:15.996Z,0.00
2018-11-20T00:41:15.989Z,0.00
2018-11-20T00:42:16.022Z,0.00
2018-11-20T00:43:16.005Z,0.00
2018-11-20T00:44:16.002Z,0.00
2018-11-20T00:45:16.008Z,0.00
2018-11-20T00:46:16.019Z,0.00
2018-11-20T00:47:16.025Z,0.00
2018-11-20T00:48:16.029Z,0.00
2018-11-20T00:49:16.037Z,0.00
2018-11-20T00:50:16.034Z,0.00
2018-11-20T00:51:16.037Z,0.00
2018-11-20T00:52:16.044Z,0.00
2018-11-20T00:53:16.047Z,0.00
2018-11-20T00:54:16.052Z,0.00
2018-11-20T00:55:16.058Z,0.00
2018-11-20T00:56:16.057Z,0.00
2018-11-20T00:57:16.064Z,0.00
2018-11-20T00:58:16.070Z,0.00
2018-11-20T00:59:16.074Z,0.00
2018-11-20T01:00:16.076Z,0.00
2018-11-20T01:01:16.103Z,0.00
2018-11-20T01:02:16.290Z,0.00
2018-11-20T01:03:16.097Z,0.00
2018-11-20T01:04:16.101Z,0.00
2018-11-20T01:05:16.102Z,0.00
2018-11-20T01:06:16.110Z,0.00
2018-11-20T01:07:16.115Z,0.00
2018-11-20T01:08:16.124Z,0.00
2018-11-20T01:09:16.121Z,0.00
2018-11-20T01:10:16.132Z,0.00
2018-11-20T01:11:16.139Z,0.00
2018-11-20T01:12:16.145Z,0.00
2018-11-20T01:13:16.147Z,0.00
2018-11-20T01:14:16.148Z,0.00
2018-11-20T01:15:16.151Z,0.00
2018-11-20T01:16:16.162Z,0.00
2018-11-20T01:17:16.160Z,0.00
2018-11-20T01:18:16.168Z,0.00
2018-11-20T01:19:16.172Z,0.00
2018-11-20T01:20:16.178Z,0.00
2018-11-20T01:21:16.178Z,0.00
2018-11-20T01:22:16.190Z,0.00
2018-11-20T01:23:16.193Z,0.00
2018-11-20T01:24:16.197Z,0.00
2018-11-20T01:25:16.205Z,0.00
2018-11-20T01:26:16.204Z,0.00
2018-11-20T01:27:16.208Z,0.00
2018-11-20T01:28:16.214Z,0.00
2018-11-20T01:29:16.216Z,0.00
2018-11-20T01:30:16.222Z,0.00
2018-11-20T01:31:16.226Z,0.00
2018-11-20T01:32:16.239Z,0.00
2018-11-20T01:33:16.243Z,0.00
2018-11-20T01:34:16.242Z,0.00
2018-11-20T01:35:16.247Z,0.00
2018-11-20T01:36:16.256Z,0.00
2018-11-20T01:37:16.259Z,0.00
2018-11-20T01:38:16.263Z,0.00
2018-11-20T01:39:16.265Z,0.00
2018-11-20T01:40:16.273Z,0.00
2018-11-20T01:41:16.275Z,0.00
2018-11-20T01:42:16.279Z,0.00
2018-11-20T01:43:16.291Z,0.00
2018-11-20T01:44:16.293Z,0.00
2018-11-20T01:45:16.301Z,0.00
2018-11-20T01:46:16.299Z,0.00
2018-11-20T01:47:16.304Z,0.00
2018-11-20T01:48:16.309Z,0.00
2018-11-20T01:49:16.317Z,0.00
2018-11-20T01:50:16.323Z,0.00
2018-11-20T01:51:16.360Z,0.00
2018-11-20T01:52:16.340Z,0.00
2018-11-20T01:53:16.333Z,0.00
2018-11-20T01:54:16.338Z,0.00
2018-11-20T01:55:16.340Z,0.00
2018-11-20T01:56:16.348Z,0.00
2018-11-20T01:57:16.353Z,0.00
2018-11-20T01:58:16.357Z,0.00
2018-11-20T01:59:16.361Z,0.00
2018-11-20T02:00:16.364Z,0.00
2018-11-20T02:01:16.367Z,0.00
2018-11-20T02:02:16.378Z,0.00
2018-11-20T02:03:16.379Z,0.00
2018-11-20T02:04:16.443Z,0.00
2018-11-20T02:05:16.395Z,0.00
2018-11-20T02:06:16.393Z,0.00
2018-11-20T02:07:16.404Z,0.00
2018-11-20T02:08:16.408Z,0.00
2018-11-20T02:09:16.417Z,0.00
2018-11-20T02:10:16.427Z,0.00
2018-11-20T02:11:16.417Z,0.00
2018-11-20T02:12:16.425Z,0.00
2018-11-20T02:13:16.429Z,0.00
2018-11-20T02:14:16.436Z,0.00
2018-11-20T02:15:16.445Z,0.00
2018-11-20T02:16:16.445Z,0.00
2018-11-20T02:17:16.439Z,0.00
2018-11-20T02:18:16.462Z,0.00
2018-11-20T02:19:16.457Z,0.00
2018-11-20T02:20:16.467Z,0.00
2018-11-20T02:21:16.468Z,0.00
2018-11-20T02:22:16.468Z,0.00
2018-11-20T02:23:16.478Z,0.00
2018-11-20T02:24:16.486Z,0.00
2018-11-20T02:25:16.483Z,0.00
2018-11-20T02:26:16.493Z,0.00
2018-11-20T02:27:16.497Z,0.00
2018-11-20T02:28:16.510Z,0.00
2018-11-20T02:29:16.509Z,0.00
2018-11-20T02:30:16.511Z,0.00
2018-11-20T02:31:16.519Z,0.00
2018-11-20T02:32:16.522Z,0.00
2018-11-20T02:33:16.524Z,0.00
2018-11-20T02:34:16.527Z,0.00
2018-11-20T02:35:16.533Z,0.00
2018-11-20T02:36:16.540Z,0.00
2018-11-20T02:37:16.549Z,0.00
2018-11-20T02:38:16.549Z,0.00
2018-11-20T02:39:16.549Z,0.00
2018-11-20T02:40:16.557Z,0.00
2018-11-20T02:41:16.564Z,0.00
2018-11-20T02:42:16.569Z,0.00
2018-11-20T02:43:16.571Z,0.00
2018-11-20T02:44:16.577Z,0.00
2018-11-20T02:45:16.581Z,0.00
2018-11-20T02:46:16.587Z,0.00
2018-11-20T02:47:16.585Z,0.00
2018-11-20T02:48:16.597Z,0.00
2018-11-20T02:49:16.601Z,0.00
2018-11-20T02:50:16.604Z,0.00
2018-11-20T02:51:16.624Z,0.00
2018-11-20T02:52:16.601Z,0.00
2018-11-20T02:53:16.617Z,0.00
2018-11-20T02:54:16.625Z,0.00
2018-11-20T02:55:16.629Z,0.00
2018-11-20T02:56:16.635Z,0.00
2018-11-20T02:57:16.639Z,0.00
2018-11-20T02:58:16.641Z,0.00
2018-11-20T02:59:16.643Z,0.00
2018-11-20T03:00:16.652Z,0.00
2018-11-20T03:01:16.652Z,0.00
2018-11-20T03:02:16.661Z,0.00
2018-11-20T03:03:16.665Z,0.00
2018-11-20T03:04:16.667Z,0.00
2018-11-20T03:05:16.674Z,0.00
2018-11-20T03:06:16.678Z,0.00
2018-11-20T03:07:16.679Z,0.00
2018-11-20T03:08:16.691Z,0.00
2018-11-20T03:09:16.700Z,0.00
2018-11-20T03:10:16.699Z,0.00
2018-11-20T03:11:16.704Z,0.00
2018-11-20T03:12:16.706Z,0.00
2018-11-20T03:13:16.710Z,0.00
2018-11-20T03:14:16.714Z,0.00
2018-11-20T03:15:16.722Z,0.00
2018-11-20T03:16:16.728Z,0.00
2018-11-20T03:17:16.728Z,0.00
2018-11-20T03:18:16.736Z,0.00
2018-11-20T03:19:16.745Z,0.00
2018-11-20T03:20:16.739Z,0.00
2018-11-20T03:21:16.749Z,0.00
2018-11-20T03:22:16.765Z,0.00
2018-11-20T03:23:16.759Z,0.00
2018-11-20T03:24:16.765Z,0.00
2018-11-20T03:25:16.773Z,0.00
2018-11-20T03:26:16.770Z,0.00
2018-11-20T03:27:16.776Z,0.00
2018-11-20T03:28:16.779Z,0.00
2018-11-20T03:29:16.789Z,0.00
2018-11-20T03:30:16.791Z,0.00
2018-11-20T03:31:16.807Z,0.00
2018-11-20T03:32:16.797Z,0.00
2018-11-20T03:33:16.805Z,0.00
2018-11-20T03:34:16.802Z,0.00
2018-11-20T03:35:16.813Z,0.00
2018-11-20T03:36:16.951Z,0.00
2018-11-20T03:37:16.827Z,0.00
2018-11-20T03:38:16.831Z,0.00
2018-11-20T03:39:16.833Z,0.00
2018-11-20T03:40:16.839Z,0.00
2018-11-20T03:41:16.835Z,0.00
2018-11-20T03:42:16.849Z,0.00
2018-11-20T03:43:16.851Z,0.00
2018-11-20T03:44:16.849Z,0.00
2018-11-20T03:45:16.860Z,0.00
2018-11-20T03:46:16.863Z,0.00
2018-11-20T03:47:16.879Z,0.00
2018-11-20T03:48:16.880Z,0.00
2018-11-20T03:49:16.877Z,0.00
2018-11-20T03:50:16.881Z,0.00
2018-11-20T03:51:16.893Z,0.00
2018-11-20T03:52:16.892Z,0.00
2018-11-20T03:53:16.898Z,0.00
2018-11-20T03:54:16.900Z,0.00
2018-11-20T03:55:16.908Z,0.00
2018-11-20T03:56:16.908Z,0.00
2018-11-20T03:57:16.915Z,0.00
2018-11-20T03:58:16.919Z,0.00
2018-11-20T03:59:16.923Z,0.00
2018-11-20T04:00:16.926Z,0.00
2018-11-20T04:01:16.929Z,0.00
2018-11-20T04:02:16.940Z,0.00
2018-11-20T04:03:16.949Z,0.00
2018-11-20T04:04:16.946Z,0.00
2018-11-20T04:05:16.949Z,0.00
2018-11-20T04:06:16.953Z,0.00
2018-11-20T04:07:16.963Z,0.00
2018-11-20T04:08:16.963Z,0.00
2018-11-20T04:09:16.973Z,0.00
2018-11-20T04:10:16.977Z,0.00
2018-11-20T04:11:16.977Z,0.00
2018-11-20T04:12:16.989Z,0.00
2018-11-20T04:13:16.994Z,0.00
2018-11-20T04:14:16.997Z,0.00
2018-11-20T04:15:16.996Z,0.00
2018-11-20T04:16:17.005Z,0.00
2018-11-20T04:17:17.001Z,0.00
2018-11-20T04:18:17.009Z,0.00
2018-11-20T04:19:17.013Z,0.00
2018-11-20T04:20:17.019Z,0.00
2018-11-20T04:21:17.026Z,0.00
2018-11-20T04:22:17.030Z,0.00
2018-11-20T04:23:17.038Z,0.00
2018-11-20T04:24:17.057Z,0.00
2018-11-20T04:25:17.041Z,0.00
2018-11-20T04:26:17.049Z,0.00
2018-11-20T04:27:17.051Z,0.00
2018-11-20T04:28:17.057Z,0.00
2018-11-20T04:29:17.060Z,0.00
2018-11-20T04:30:17.060Z,0.00
2018-11-20T04:31:17.070Z,0.00
2018-11-20T04:32:17.073Z,0.00
2018-11-20T04:33:17.080Z,0.00
2018-11-20T04:34:17.072Z,0.00
2018-11-20T04:35:17.088Z,0.00
2018-11-20T04:36:17.093Z,0.00
2018-11-20T04:37:17.103Z,0.00
2018-11-20T04:38:17.105Z,0.00
2018-11-20T04:39:17.108Z,0.00
2018-11-20T04:40:17.106Z,0.00
2018-11-20T04:41:17.190Z,0.00
2018-11-20T04:42:17.114Z,0.00
2018-11-20T04:43:17.128Z,0.00
2018-11-20T04:44:17.127Z,0.00
2018-11-20T04:45:17.140Z,0.00
2018-11-20T04:46:17.140Z,0.00
2018-11-20T04:47:17.142Z,0.00
2018-11-20T04:48:17.150Z,0.00
2018-11-20T04:49:17.148Z,0.00
2018-11-20T04:50:17.157Z,0.00
2018-11-20T04:51:17.158Z,0.00
2018-11-20T04:52:17.166Z,0.00
2018-11-20T04:53:17.168Z,0.00
2018-11-20T04:54:17.178Z,0.00
2018-11-20T04:55:17.181Z,0.00
2018-11-20T04:56:17.184Z,0.00
2018-11-20T04:57:17.188Z,0.00
2018-11-20T04:58:17.190Z,0.00
2018-11-20T04:59:17.196Z,0.00
2018-11-20T05:00:17.205Z,0.00
2018-11-20T05:01:17.202Z,0.00
2018-11-20T05:02:17.204Z,0.00
2018-11-20T05:03:17.214Z,0.00
2018-11-20T05:04:17.218Z,0.00
2018-11-20T05:05:17.224Z,0.00
2018-11-20T05:06:17.228Z,0.00
2018-11-20T05:07:17.233Z,0.00
2018-11-20T05:08:17.235Z,0.00
2018-11-20T05:09:17.243Z,0.00
2018-11-20T05:10:17.250Z,0.00
2018-11-20T05:11:17.252Z,0.00
2018-11-20T05:12:17.248Z,0.00
2018-11-20T05:13:17.321Z,0.00
2018-11-20T05:14:17.258Z,0.00
2018-11-20T05:15:17.266Z,0.00
2018-11-20T05:16:17.269Z,0.00
2018-11-20T05:17:17.273Z,0.00
2018-11-20T05:18:17.286Z,0.00
2018-11-20T05:19:17.284Z,0.00
2018-11-20T05:20:17.288Z,0.00
2018-11-20T05:21:17.298Z,0.00
2018-11-20T05:22:17.305Z,0.00
2018-11-20T05:23:17.302Z,0.00
2018-11-20T05:24:17.352Z,0.00
2018-11-20T05:25:17.312Z,0.00
2018-11-20T05:26:17.317Z,0.00
2018-11-20T05:27:17.326Z,0.00
2018-11-20T05:28:17.329Z,0.00
2018-11-20T05:29:17.329Z,0.00
2018-11-20T05:30:17.332Z,0.00
2018-11-20T05:31:17.344Z,0.00
2018-11-20T05:32:17.346Z,0.00
2018-11-20T05:33:17.349Z,0.00
2018-11-20T05:34:17.353Z,0.00
2018-11-20T05:35:17.355Z,0.00
2018-11-20T05:36:17.365Z,0.00
2018-11-20T05:37:17.365Z,0.00
2018-11-20T05:38:17.375Z,0.00
2018-11-20T05:39:17.378Z,0.00
2018-11-20T05:40:17.444Z,0.00
2018-11-20T05:41:17.384Z,0.00
2018-11-20T05:42:17.386Z,0.00
2018-11-20T05:43:17.391Z,0.00
2018-11-20T05:44:17.395Z,0.00
2018-11-20T05:45:17.404Z,0.00
2018-11-20T05:46:17.409Z,0.00
2018-11-20T05:47:17.407Z,0.00
2018-11-20T05:48:17.423Z,0.00
2018-11-20T05:49:17.419Z,0.00
2018-11-20T05:50:17.431Z,0.00
2018-11-20T05:51:17.429Z,0.00
2018-11-20T05:52:17.430Z,0.00
2018-11-20T05:53:17.437Z,0.00
2018-11-20T05:54:17.444Z,0.00
2018-11-20T05:55:17.445Z,0.00
2018-11-20T05:56:17.451Z,0.00
2018-11-20T05:57:17.455Z,0.00
2018-11-20T05:58:17.456Z,0.00
2018-11-20T05:59:17.465Z,0.00
2018-11-20T06:00:17.473Z,0.00
2018-11-20T06:01:17.473Z,0.00
2018-11-20T06:02:17.475Z,0.00
2018-11-20T06:03:17.480Z,0.00
2018-11-20T06:04:17.484Z,0.00
2018-11-20T06:05:17.493Z,0.00
2018-11-20T06:06:17.498Z,0.00
2018-11-20T06:07:17.498Z,0.00
2018-11-20T06:08:17.502Z,0.00
2018-11-20T06:09:17.512Z,0.00
2018-11-20T06:10:17.518Z,0.00
2018-11-20T06:11:17.516Z,0.00
2018-11-20T06:12:17.525Z,0.00
2018-11-20T06:13:17.529Z,0.00
2018-11-20T06:14:17.530Z,0.00
2018-11-20T06:15:17.538Z,0.00
2018-11-20T06:16:17.548Z,0.00
2018-11-20T06:17:17.544Z,0.00
2018-11-20T06:18:17.546Z,0.00
2018-11-20T06:19:17.550Z,0.00
2018-11-20T06:20:17.555Z,0.00
2018-11-20T06:21:17.560Z,0.00
2018-11-20T06:22:18.044Z,0.00
2018-11-20T06:23:17.578Z,0.00
2018-11-20T06:24:17.577Z,0.00
2018-11-20T06:25:17.576Z,0.00
2018-11-20T06:26:17.590Z,0.00
2018-11-20T06:27:17.590Z,0.00
2018-11-20T06:28:17.597Z,0.00
2018-11-20T06:29:17.726Z,0.00
2018-11-20T06:30:17.610Z,0.00
2018-11-20T06:31:17.604Z,0.00
2018-11-20T06:32:17.608Z,0.00
2018-11-20T06:33:17.616Z,0.00
2018-11-20T06:34:17.676Z,0.00
2018-11-20T06:35:17.620Z,0.00
2018-11-20T06:36:17.624Z,0.00
2018-11-20T06:37:17.634Z,0.00
2018-11-20T06:38:17.637Z,0.00
2018-11-20T06:39:17.636Z,0.00
2018-11-20T06:40:17.653Z,0.00
2018-11-20T06:41:17.703Z,0.00
2018-11-20T06:42:17.655Z,0.00
2018-11-20T06:43:17.648Z,0.00
2018-11-20T06:44:17.680Z,0.00
2018-11-20T06:45:17.660Z,0.00
2018-11-20T06:46:17.670Z,0.00
2018-11-20T06:47:17.738Z,0.00
2018-11-20T06:48:17.681Z,0.00
2018-11-20T06:49:17.672Z,0.00
2018-11-20T06:50:17.696Z,0.00
2018-11-20T06:51:17.701Z,0.00
2018-11-20T06:52:17.700Z,0.00
2018-11-20T06:53:17.763Z,0.00
2018-11-20T06:54:17.706Z,0.00
2018-11-20T06:55:17.714Z,0.00
2018-11-20T06:56:17.715Z,0.00
2018-11-20T06:57:17.740Z,0.00
2018-11-20T06:58:17.720Z,0.00
2018-11-20T06:59:17.746Z,0.00
2018-11-20T07:00:17.743Z,0.00
2018-11-20T07:01:17.752Z,0.00
2018-11-20T07:02:17.740Z,0.00
2018-11-20T07:03:17.743Z,4.00
2018-11-20T07:04:17.749Z,4.00
2018-11-20T07:05:17.769Z,4.00
2018-11-20T07:06:17.758Z,4.00
2018-11-20T07:07:17.892Z,4.00
2018-11-20T07:08:17.867Z,4.00
2018-11-20T07:09:17.776Z,4.00
2018-11-20T07:10:17.776Z,4.00
2018-11-20T07:11:17.877Z,4.00
2018-11-20T07:12:17.786Z,4.00
2018-11-20T07:13:17.780Z,4.00
2018-11-20T07:14:17.796Z,4.00
2018-11-20T07:15:17.954Z,4.00
2018-11-20T07:16:17.828Z,0.00
2018-11-20T07:17:17.806Z,0.00
2018-11-20T07:18:17.821Z,0.00
2018-11-20T07:19:17.835Z,4.00
2018-11-20T07:20:17.839Z,4.00
2018-11-20T07:21:17.842Z,4.00
2018-11-20T07:22:17.843Z,4.00
2018-11-20T07:23:17.849Z,4.00
2018-11-20T07:24:17.868Z,4.00
2018-11-20T07:25:17.859Z,4.00
2018-11-20T07:26:17.850Z,4.00
2018-11-20T07:27:17.959Z,4.00
2018-11-20T07:28:17.859Z,4.00
2018-11-20T07:29:17.884Z,8.00
2018-11-20T07:30:18.065Z,4.00
2018-11-20T07:31:17.983Z,4.00
2018-11-20T07:32:17.879Z,4.00
2018-11-20T07:33:17.889Z,4.00
2018-11-20T07:34:17.901Z,8.00
2018-11-20T07:35:18.005Z,8.00
2018-11-20T07:36:18.069Z,8.00
2018-11-20T07:37:18.085Z,8.00
2018-11-20T07:38:17.927Z,4.00
2018-11-20T07:39:17.920Z,8.00
2018-11-20T07:40:17.926Z,8.00
2018-11-20T07:41:17.922Z,8.00
2018-11-20T07:42:17.916Z,8.00
2018-11-20T07:43:18.031Z,8.00
2018-11-20T07:44:18.017Z,8.00
2018-11-20T07:45:17.953Z,12.00
2018-11-20T07:46:17.940Z,8.00
2018-11-20T07:47:17.949Z,8.00
2018-11-20T07:48:17.948Z,8.00
2018-11-20T07:49:18.054Z,8.00
2018-11-20T07:50:17.964Z,12.00
2018-11-20T07:51:17.960Z,8.00
2018-11-20T07:52:17.962Z,12.00
2018-11-20T07:53:17.990Z,12.00
2018-11-20T07:54:17.976Z,12.00
2018-11-20T07:55:18.015Z,16.00
2018-11-20T07:56:18.261Z,16.00
2018-11-20T07:57:17.990Z,12.00
2018-11-20T07:58:17.990Z,12.00
2018-11-20T07:59:18.010Z,16.00
2018-11-20T08:00:17.998Z,16.00
2018-11-20T08:01:18.028Z,16.00
2018-11-20T08:02:18.127Z,12.00
2018-11-20T08:03:18.025Z,16.00
2018-11-20T08:04:18.016Z,12.00
2018-11-20T08:05:18.017Z,16.00
2018-11-20T08:06:18.032Z,16.00
2018-11-20T08:07:18.032Z,16.00
2018-11-20T08:08:18.099Z,16.00
2018-11-20T08:09:18.051Z,16.00
2018-11-20T08:10:18.072Z,16.00
2018-11-20T08:11:18.048Z,16.00
2018-11-20T08:12:18.057Z,20.00
2018-11-20T08:13:18.063Z,20.00
2018-11-20T08:14:18.057Z,20.00
2018-11-20T08:15:18.087Z,16.00
2018-11-20T08:16:18.071Z,20.00
2018-11-20T08:17:18.080Z,16.00
2018-11-20T08:18:18.080Z,20.00
2018-11-20T08:19:18.081Z,20.00
2018-11-20T08:20:18.083Z,20.00
2018-11-20T08:21:18.094Z,20.00
2018-11-20T08:22:18.097Z,20.00
2018-11-20T08:23:18.111Z,20.00
2018-11-20T08:24:18.108Z,20.00
2018-11-20T08:25:18.120Z,20.00
2018-11-20T08:26:18.248Z,20.00
2018-11-20T08:27:18.121Z,20.00
2018-11-20T08:28:18.124Z,20.00
2018-11-20T08:29:18.131Z,20.00
2018-11-20T08:30:18.144Z,20.00
2018-11-20T08:31:18.134Z,20.00
2018-11-20T08:32:18.141Z,20.00
2018-11-20T08:33:18.154Z,20.00
2018-11-20T08:34:18.285Z,24.00
2018-11-20T08:35:18.271Z,24.00
2018-11-20T08:36:18.160Z,24.00
2018-11-20T08:37:18.193Z,24.00
2018-11-20T08:38:18.162Z,24.00
2018-11-20T08:39:18.175Z,24.00
2018-11-20T08:40:18.175Z,24.00
2018-11-20T08:41:18.181Z,28.00
2018-11-20T08:42:18.241Z,28.00
2018-11-20T08:43:18.190Z,24.00
2018-11-20T08:44:18.239Z,24.00
2018-11-20T08:45:18.198Z,28.00
2018-11-20T08:46:18.203Z,28.00
2018-11-20T08:47:18.210Z,24.00
2018-11-20T08:48:18.287Z,28.00
2018-11-20T08:49:18.213Z,28.00
2018-11-20T08:50:18.243Z,32.00
2018-11-20T08:51:18.218Z,32.00
2018-11-20T08:52:18.232Z,32.00
2018-11-20T08:53:18.242Z,32.00
2018-11-20T08:54:18.243Z,32.00
2018-11-20T08:55:18.250Z,32.00
2018-11-20T08:56:18.245Z,28.00
2018-11-20T08:57:18.253Z,32.00
2018-11-20T08:58:18.258Z,32.00
2018-11-20T08:59:18.260Z,32.00
2018-11-20T09:00:18.262Z,32.00
2018-11-20T09:01:18.264Z,32.00
2018-11-20T09:02:18.330Z,32.00
2018-11-20T09:03:18.461Z,32.00
2018-11-20T09:04:18.282Z,32.00
2018-11-20T09:05:18.286Z,32.00
2018-11-20T09:06:18.290Z,32.00
2018-11-20T09:07:18.307Z,32.00
2018-11-20T09:08:18.305Z,32.00
2018-11-20T09:09:18.308Z,32.00
2018-11-20T09:10:18.367Z,36.00
2018-11-20T09:11:18.310Z,36.00
2018-11-20T09:12:18.318Z,32.00
2018-11-20T09:13:18.333Z,36.00
2018-11-20T09:14:18.329Z,36.00
2018-11-20T09:15:18.330Z,36.00
2018-11-20T09:16:18.367Z,36.00
2018-11-20T09:17:18.338Z,36.00
2018-11-20T09:18:18.344Z,40.00
2018-11-20T09:19:18.344Z,36.00
2018-11-20T09:20:18.430Z,36.00
2018-11-20T09:21:18.437Z,36.00
2018-11-20T09:22:18.358Z,36.00
2018-11-20T09:23:18.359Z,40.00
2018-11-20T09:24:18.394Z,40.00
2018-11-20T09:25:18.368Z,40.00
2018-11-20T09:26:18.380Z,40.00
2018-11-20T09:27:18.378Z,40.00
2018-11-20T09:28:18.385Z,40.00
2018-11-20T09:29:18.390Z,44.00
2018-11-20T09:30:18.393Z,48.00
2018-11-20T09:31:18.405Z,48.00
2018-11-20T09:32:18.404Z,44.00
2018-11-20T09:33:18.406Z,48.00
2018-11-20T09:34:18.440Z,48.00
2018-11-20T09:35:18.552Z,52.00
2018-11-20T09:36:18.422Z,48.00
2018-11-20T09:37:18.424Z,44.00
2018-11-20T09:38:18.430Z,48.00
2018-11-20T09:39:18.438Z,48.00
2018-11-20T09:40:18.437Z,48.00
2018-11-20T09:41:18.450Z,44.00
2018-11-20T09:42:18.442Z,44.00
2018-11-20T09:43:18.455Z,44.00
2018-11-20T09:44:18.455Z,48.00
2018-11-20T09:45:18.460Z,48.00
2018-11-20T09:46:18.461Z,48.00
2018-11-20T09:47:18.466Z,48.00
2018-11-20T09:48:18.472Z,48.00
2018-11-20T09:49:18.477Z,48.00
2018-11-20T09:50:18.482Z,48.00
2018-11-20T09:51:18.490Z,48.00
2018-11-20T09:52:18.778Z,44.00
2018-11-20T09:53:18.500Z,48.00
2018-11-20T09:54:18.553Z,48.00
2018-11-20T09:55:18.517Z,52.00
2018-11-20T09:56:18.502Z,48.00
2018-11-20T09:57:18.513Z,48.00
2018-11-20T09:58:18.519Z,52.00
2018-11-20T09:59:18.623Z,52.00
2018-11-20T10:00:18.521Z,52.00
2018-11-20T10:01:18.534Z,52.00
2018-11-20T10:02:18.528Z,52.00
2018-11-20T10:03:18.537Z,56.00
2018-11-20T10:04:18.537Z,56.00
2018-11-20T10:05:18.549Z,52.00
2018-11-20T10:06:18.551Z,56.00
2018-11-20T10:07:18.595Z,52.00
2018-11-20T10:08:18.559Z,56.00
2018-11-20T10:09:18.566Z,56.00
2018-11-20T10:10:18.569Z,56.00
2018-11-20T10:11:18.574Z,52.00
2018-11-20T10:12:18.579Z,52.00
2018-11-20T10:13:18.586Z,52.00
2018-11-20T10:14:18.644Z,60.00
2018-11-20T10:15:18.717Z,60.00
2018-11-20T10:16:18.582Z,60.00
2018-11-20T10:17:18.610Z,64.00
2018-11-20T10:18:18.604Z,60.00
2018-11-20T10:19:18.603Z,56.00
2018-11-20T10:20:18.621Z,60.00
2018-11-20T10:21:18.629Z,64.00
2018-11-20T10:22:18.616Z,60.00
2018-11-20T10:23:18.629Z,60.00
2018-11-20T10:24:18.623Z,60.00
2018-11-20T10:25:18.703Z,60.00
2018-11-20T10:26:18.668Z,60.00
2018-11-20T10:27:18.643Z,60.00
2018-11-20T10:28:18.645Z,60.00
2018-11-20T10:29:18.658Z,64.00
2018-11-20T10:30:18.652Z,60.00
2018-11-20T10:31:18.660Z,60.00
2018-11-20T10:32:18.659Z,64.00
2018-11-20T10:33:18.668Z,68.00
2018-11-20T10:34:18.753Z,64.00
2018-11-20T10:35:18.682Z,64.00
2018-11-20T10:36:18.685Z,64.00
2018-11-20T10:37:18.689Z,60.00
2018-11-20T10:38:18.689Z,64.00
2018-11-20T10:39:18.707Z,64.00
2018-11-20T10:40:18.733Z,60.00
2018-11-20T10:41:18.702Z,68.00
2018-11-20T10:42:18.709Z,68.00
2018-11-20T10:43:18.719Z,68.00
2018-11-20T10:44:18.730Z,68.00
2018-11-20T10:45:18.760Z,64.00
2018-11-20T10:46:18.855Z,68.00
2018-11-20T10:47:18.726Z,68.00
2018-11-20T10:48:18.733Z,68.00
2018-11-20T10:49:18.737Z,68.00
2018-11-20T10:50:18.744Z,72.00
2018-11-20T10:51:18.749Z,72.00
2018-11-20T10:52:18.793Z,68.00
2018-11-20T10:53:18.756Z,68.00
2018-11-20T10:54:18.757Z,72.00
2018-11-20T10:55:18.766Z,72.00
2018-11-20T10:56:18.772Z,72.00
2018-11-20T10:57:18.773Z,76.00
2018-11-20T10:58:18.785Z,76.00
2018-11-20T10:59:18.785Z,76.00
2018-11-20T11:00:18.785Z,80.00
2018-11-20T11:01:18.799Z,80.00
2018-11-20T11:02:18.801Z,80.00
2018-11-20T11:03:18.809Z,80.00
2018-11-20T11:04:18.865Z,88.00
2018-11-20T11:05:18.809Z,92.00
2018-11-20T11:06:18.892Z,100.00
2018-11-20T11:07:18.892Z,112.00
2018-11-20T11:08:18.825Z,128.00
2018-11-20T11:09:18.829Z,124.00
2018-11-20T11:10:18.831Z,128.00
2018-11-20T11:11:18.850Z,136.00
2018-11-20T11:12:18.860Z,132.00
2018-11-20T11:13:18.843Z,136.00
2018-11-20T11:14:18.853Z,136.00
2018-11-20T11:15:18.857Z,132.00
2018-11-20T11:16:18.863Z,128.00
2018-11-20T11:17:18.871Z,124.00
2018-11-20T11:18:18.881Z,120.00
2018-11-20T11:19:18.883Z,128.00
2018-11-20T11:20:18.900Z,128.00
2018-11-20T11:21:18.886Z,128.00
2018-11-20T11:22:18.888Z,124.00
2018-11-20T11:23:18.890Z,124.00
2018-11-20T11:24:18.906Z,128.00
2018-11-20T11:25:18.899Z,132.00
2018-11-20T11:26:18.916Z,136.00
2018-11-20T11:27:18.910Z,140.00
2018-11-20T11:28:18.915Z,156.00
2018-11-20T11:29:18.919Z,148.00
2018-11-20T11:30:18.923Z,144.00
2018-11-20T11:31:18.930Z,136.00
2018-11-20T11:32:18.928Z,128.00
2018-11-20T11:33:24.119Z,132.00
2018-11-20T11:34:18.937Z,136.00
2018-11-20T11:35:18.947Z,136.00
2018-11-20T11:36:18.944Z,128.00
2018-11-20T11:37:18.952Z,120.00
2018-11-20T11:38:18.965Z,112.00
2018-11-20T11:39:18.964Z,112.00
2018-11-20T11:40:18.993Z,108.00
2018-11-20T11:41:18.970Z,104.00
2018-11-20T11:42:18.976Z,96.00
2018-11-20T11:43:18.978Z,92.00
2018-11-20T11:44:18.984Z,96.00
2018-11-20T11:45:18.978Z,96.00
2018-11-20T11:46:18.994Z,92.00
2018-11-20T11:47:19.000Z,88.00
2018-11-20T11:48:19.002Z,84.00
2018-11-20T11:49:19.000Z,80.00
2018-11-20T11:50:19.010Z,76.00
2018-11-20T11:51:19.016Z,76.00
2018-11-20T11:52:19.018Z,72.00
2018-11-20T11:53:19.023Z,68.00
2018-11-20T11:54:19.025Z,68.00
2018-11-20T11:55:19.031Z,68.00
2018-11-20T11:56:19.047Z,68.00
2018-11-20T11:57:19.040Z,64.00
2018-11-20T11:58:19.047Z,68.00
2018-11-20T11:59:19.048Z,68.00
2018-11-20T12:00:19.052Z,72.00
2018-11-20T12:01:19.058Z,68.00
2018-11-20T12:03:19.068Z,68.00
2018-11-20T12:04:19.082Z,68.00
2018-11-20T12:05:19.078Z,64.00
2018-11-20T12:06:19.074Z,68.00
2018-11-20T12:07:19.085Z,72.00
2018-11-20T12:08:19.102Z,68.00
2018-11-20T12:09:19.095Z,68.00
2018-11-20T12:10:19.101Z,80.00
2018-11-20T12:11:19.106Z,76.00
2018-11-20T12:12:19.104Z,76.00
2018-11-20T12:13:40.117Z,72.00
2018-11-20T12:14:19.123Z,72.00
2018-11-20T12:15:19.119Z,72.00
2018-11-20T12:16:19.125Z,64.00
2018-11-20T12:17:19.133Z,68.00
2018-11-20T12:18:19.132Z,68.00
2018-11-20T12:19:19.134Z,68.00
2018-11-20T12:20:19.143Z,64.00
2018-11-20T12:21:19.154Z,68.00
2018-11-20T12:22:19.149Z,68.00
2018-11-20T12:23:19.155Z,68.00
2018-11-20T12:24:19.170Z,64.00
2018-11-20T12:25:19.165Z,68.00
2018-11-20T12:26:19.154Z,68.00
2018-11-20T12:27:20.329Z,68.00
2018-11-20T12:28:19.174Z,64.00
2018-11-20T12:29:19.181Z,64.00
2018-11-20T12:30:19.185Z,60.00
2018-11-20T12:31:19.188Z,60.00
2018-11-20T12:32:19.192Z,60.00
2018-11-20T12:33:19.190Z,56.00
2018-11-20T12:34:19.208Z,56.00
2018-11-20T12:35:19.204Z,52.00
2018-11-20T12:36:19.221Z,52.00
2018-11-20T12:37:19.214Z,48.00
2018-11-20T12:38:19.658Z,48.00
2018-11-20T12:39:19.885Z,44.00
2018-11-20T12:40:19.227Z,48.00
2018-11-20T12:41:19.235Z,48.00
2018-11-20T12:42:19.229Z,44.00
2018-11-20T12:43:19.237Z,44.00
2018-11-20T12:44:20.199Z,44.00
2018-11-20T12:45:19.247Z,48.00
2018-11-20T12:46:19.250Z,44.00
2018-11-20T12:47:19.256Z,44.00
2018-11-20T12:48:19.261Z,44.00
2018-11-20T12:49:19.267Z,48.00
2018-11-20T12:50:19.266Z,52.00
2018-11-20T12:51:19.276Z,48.00
2018-11-20T12:52:19.276Z,48.00
2018-11-20T12:53:21.330Z,48.00
2018-11-20T12:54:19.287Z,52.00
2018-11-20T12:55:19.293Z,60.00
2018-11-20T12:56:19.296Z,64.00
2018-11-20T12:57:19.298Z,60.00
2018-11-20T12:58:19.308Z,56.00
2018-11-20T12:59:19.315Z,48.00
2018-11-20T13:00:19.316Z,48.00
2018-11-20T13:01:19.313Z,56.00
2018-11-20T13:02:19.323Z,56.00
2018-11-20T13:03:19.328Z,48.00
2018-11-20T13:04:19.340Z,44.00
2018-11-20T13:05:19.340Z,48.00
2018-11-20T13:06:19.339Z,48.00
2018-11-20T13:07:19.344Z,44.00